Flugplatz Großenhain

Für EDAK sind keine METAR/TAF Berichte vorhanden.
Es werden die Flugwettermeldungen vom Flugplatz Dresden in 24 km Entfernung angezeigt.

Bericht für EDDC

vom 17.09. um 13:20 UTC

Wind 15 kt aus 270° in Böen 26 kt

Sichtweite 10 km oder mehr

aufgelockert bewölkt in 4100 ft

Temperatur 16.0°C

Taupunkt 6.0°C

Luftfeuchtigkeit 51%

Luftdruck 1014 hPa

keine wesentliche Wetteränderung innerhalb den nächsten 2 Stunden zu erwarten

EDDC 171320Z 27015G26KT 230V310 9999 SCT041 16/06 Q1014 NOSIG

Prognose für EDDC

vom 17.09. um 00:00 UTC

Zwischen 00:00 UTC und 00:00 UTC

Wind 12 kt aus 280°

Sichtweite 10 km oder mehr

aufgelockert bewölkt in 3000 ft


Zwischen 00:00 UTC und 00:00 UTC zeitweise

Wind 15 kt aus 280° in Böen 30 kt

Regenschauer

aufgebrochene Bewölkung in 1500 ft

TAF EDDC 171100Z 1712/1812 28012KT 9999 SCT030 TEMPO 1712/1719 28015G30KT SHRA BKN015CB
Impressum